sensor_id;sensor_type;location;lat;lon;timestamp;P1;durP1;ratioP1;P2;durP2;ratioP2
22230;SDS011;11284;48.086;-1.652;2022-11-21T00:00:43;18.85;;;5.85;;
22230;SDS011;11284;48.086;-1.652;2022-11-21T00:03:10;17.90;;;6.00;;
22230;SDS011;11284;48.086;-1.652;2022-11-21T00:05:40;20.42;;;5.88;;
22230;SDS011;11284;48.086;-1.652;2022-11-21T00:08:06;19.15;;;5.78;;
22230;SDS011;11284;48.086;-1.652;2022-11-21T00:10:32;18.08;;;6.00;;
22230;SDS011;11284;48.086;-1.652;2022-11-21T00:12:58;17.48;;;5.82;;
22230;SDS011;11284;48.086;-1.652;2022-11-21T00:15:24;21.38;;;6.22;;
22230;SDS011;11284;48.086;-1.652;2022-11-21T00:17:51;19.00;;;5.45;;
22230;SDS011;11284;48.086;-1.652;2022-11-21T00:20:18;18.15;;;6.05;;
22230;SDS011;11284;48.086;-1.652;2022-11-21T00:22:44;18.73;;;5.57;;
22230;SDS011;11284;48.086;-1.652;2022-11-21T00:25:11;21.13;;;6.00;;
22230;SDS011;11284;48.086;-1.652;2022-11-21T00:27:37;21.80;;;5.88;;
22230;SDS011;11284;48.086;-1.652;2022-11-21T00:30:03;18.85;;;5.25;;
22230;SDS011;11284;48.086;-1.652;2022-11-21T00:32:30;16.50;;;5.53;;
22230;SDS011;11284;48.086;-1.652;2022-11-21T00:34:56;15.63;;;4.60;;
22230;SDS011;11284;48.086;-1.652;2022-11-21T00:37:24;19.63;;;5.32;;
22230;SDS011;11284;48.086;-1.652;2022-11-21T00:39:50;18.85;;;4.88;;
22230;SDS011;11284;48.086;-1.652;2022-11-21T00:42:16;17.10;;;5.43;;
22230;SDS011;11284;48.086;-1.652;2022-11-21T00:44:42;18.00;;;5.20;;
22230;SDS011;11284;48.086;-1.652;2022-11-21T00:47:08;21.08;;;5.43;;
22230;SDS011;11284;48.086;-1.652;2022-11-21T00:49:34;19.77;;;5.93;;
22230;SDS011;11284;48.086;-1.652;2022-11-21T00:52:00;16.52;;;5.53;;
22230;SDS011;11284;48.086;-1.652;2022-11-21T00:54:26;16.63;;;5.35;;
22230;SDS011;11284;48.086;-1.652;2022-11-21T00:56:52;21.17;;;5.85;;
22230;SDS011;11284;48.086;-1.652;2022-11-21T00:59:19;20.33;;;5.93;;
22230;SDS011;11284;48.086;-1.652;2022-11-21T01:01:45;21.55;;;5.90;;
22230;SDS011;11284;48.086;-1.652;2022-11-21T01:04:11;17.42;;;4.82;;
22230;SDS011;11284;48.086;-1.652;2022-11-21T01:06:37;18.70;;;4.90;;
22230;SDS011;11284;48.086;-1.652;2022-11-21T01:09:03;22.95;;;5.40;;
22230;SDS011;11284;48.086;-1.652;2022-11-21T01:11:29;16.35;;;4.35;;
22230;SDS011;11284;48.086;-1.652;2022-11-21T01:13:56;17.73;;;4.50;;
22230;SDS011;11284;48.086;-1.652;2022-11-21T01:16:22;17.58;;;4.40;;
22230;SDS011;11284;48.086;-1.652;2022-11-21T01:18:49;19.52;;;4.70;;
22230;SDS011;11284;48.086;-1.652;2022-11-21T01:21:16;20.67;;;5.75;;
22230;SDS011;11284;48.086;-1.652;2022-11-21T01:23:43;21.95;;;5.13;;
22230;SDS011;11284;48.086;-1.652;2022-11-21T01:26:13;14.77;;;4.70;;
22230;SDS011;11284;48.086;-1.652;2022-11-21T01:28:39;20.55;;;5.10;;
22230;SDS011;11284;48.086;-1.652;2022-11-21T01:31:09;18.15;;;4.63;;
22230;SDS011;11284;48.086;-1.652;2022-11-21T01:33:35;16.95;;;4.45;;
22230;SDS011;11284;48.086;-1.652;2022-11-21T01:36:09;18.42;;;4.75;;
22230;SDS011;11284;48.086;-1.652;2022-11-21T01:38:35;17.85;;;4.80;;
22230;SDS011;11284;48.086;-1.652;2022-11-21T01:41:02;16.80;;;4.38;;
22230;SDS011;11284;48.086;-1.652;2022-11-21T01:43:28;18.83;;;4.63;;
22230;SDS011;11284;48.086;-1.652;2022-11-21T01:48:39;13.90;;;3.97;;
22230;SDS011;11284;48.086;-1.652;2022-11-21T01:51:09;17.75;;;4.97;;
22230;SDS011;11284;48.086;-1.652;2022-11-21T01:53:36;18.10;;;4.78;;
22230;SDS011;11284;48.086;-1.652;2022-11-21T01:56:03;16.85;;;4.40;;
22230;SDS011;11284;48.086;-1.652;2022-11-21T01:58:30;17.30;;;4.75;;
22230;SDS011;11284;48.086;-1.652;2022-11-21T02:00:57;21.25;;;5.25;;
22230;SDS011;11284;48.086;-1.652;2022-11-21T02:03:24;15.13;;;4.20;;
22230;SDS011;11284;48.086;-1.652;2022-11-21T02:05:51;18.95;;;4.60;;
22230;SDS011;11284;48.086;-1.652;2022-11-21T02:08:18;18.45;;;4.93;;
22230;SDS011;11284;48.086;-1.652;2022-11-21T02:13:29;18.38;;;5.03;;
22230;SDS011;11284;48.086;-1.652;2022-11-21T02:15:56;16.05;;;4.68;;
22230;SDS011;11284;48.086;-1.652;2022-11-21T02:18:22;18.27;;;4.55;;
22230;SDS011;11284;48.086;-1.652;2022-11-21T02:20:49;17.20;;;4.80;;
22230;SDS011;11284;48.086;-1.652;2022-11-21T02:25:43;19.45;;;4.90;;
22230;SDS011;11284;48.086;-1.652;2022-11-21T02:28:15;16.55;;;5.03;;
22230;SDS011;11284;48.086;-1.652;2022-11-21T02:30:43;18.65;;;5.00;;
22230;SDS011;11284;48.086;-1.652;2022-11-21T02:33:09;15.13;;;4.90;;
22230;SDS011;11284;48.086;-1.652;2022-11-21T02:35:36;15.88;;;4.30;;
22230;SDS011;11284;48.086;-1.652;2022-11-21T02:38:21;21.73;;;5.20;;
22230;SDS011;11284;48.086;-1.652;2022-11-21T02:41:31;19.45;;;4.68;;
22230;SDS011;11284;48.086;-1.652;2022-11-21T02:46:04;19.83;;;5.03;;
22230;SDS011;11284;48.086;-1.652;2022-11-21T02:48:30;14.77;;;4.18;;
22230;SDS011;11284;48.086;-1.652;2022-11-21T02:50:57;16.83;;;4.68;;
22230;SDS011;11284;48.086;-1.652;2022-11-21T02:53:23;18.38;;;4.85;;
22230;SDS011;11284;48.086;-1.652;2022-11-21T02:55:49;18.50;;;4.60;;
22230;SDS011;11284;48.086;-1.652;2022-11-21T02:58:15;26.67;;;5.93;;
22230;SDS011;11284;48.086;-1.652;2022-11-21T03:00:41;21.55;;;5.60;;
22230;SDS011;11284;48.086;-1.652;2022-11-21T03:03:07;17.75;;;4.72;;
22230;SDS011;11284;48.086;-1.652;2022-11-21T03:05:33;18.90;;;4.85;;
22230;SDS011;11284;48.086;-1.652;2022-11-21T03:07:59;17.98;;;5.43;;
22230;SDS011;11284;48.086;-1.652;2022-11-21T03:10:26;19.13;;;5.40;;
22230;SDS011;11284;48.086;-1.652;2022-11-21T03:12:52;21.60;;;5.47;;
22230;SDS011;11284;48.086;-1.652;2022-11-21T03:15:24;21.70;;;5.13;;
22230;SDS011;11284;48.086;-1.652;2022-11-21T03:17:51;19.38;;;4.78;;
22230;SDS011;11284;48.086;-1.652;2022-11-21T03:20:17;20.08;;;5.28;;
22230;SDS011;11284;48.086;-1.652;2022-11-21T03:22:43;20.17;;;4.97;;
22230;SDS011;11284;48.086;-1.652;2022-11-21T03:25:09;21.85;;;5.22;;
22230;SDS011;11284;48.086;-1.652;2022-11-21T03:27:35;17.13;;;5.53;;
22230;SDS011;11284;48.086;-1.652;2022-11-21T03:30:02;17.33;;;4.97;;
22230;SDS011;11284;48.086;-1.652;2022-11-21T03:32:28;25.92;;;6.05;;
22230;SDS011;11284;48.086;-1.652;2022-11-21T03:34:54;26.35;;;6.03;;
22230;SDS011;11284;48.086;-1.652;2022-11-21T03:37:20;19.17;;;4.95;;
22230;SDS011;11284;48.086;-1.652;2022-11-21T03:39:46;17.33;;;4.93;;
22230;SDS011;11284;48.086;-1.652;2022-11-21T03:42:12;21.25;;;5.05;;
22230;SDS011;11284;48.086;-1.652;2022-11-21T03:44:38;17.80;;;4.90;;
22230;SDS011;11284;48.086;-1.652;2022-11-21T03:47:04;19.58;;;5.20;;
22230;SDS011;11284;48.086;-1.652;2022-11-21T03:49:30;20.98;;;5.05;;
22230;SDS011;11284;48.086;-1.652;2022-11-21T03:51:56;16.63;;;4.57;;
22230;SDS011;11284;48.086;-1.652;2022-11-21T03:54:22;16.58;;;4.85;;
22230;SDS011;11284;48.086;-1.652;2022-11-21T03:56:48;16.33;;;5.53;;
22230;SDS011;11284;48.086;-1.652;2022-11-21T03:59:14;14.93;;;4.57;;
22230;SDS011;11284;48.086;-1.652;2022-11-21T04:01:40;17.13;;;4.95;;
22230;SDS011;11284;48.086;-1.652;2022-11-21T04:04:06;16.90;;;4.88;;
22230;SDS011;11284;48.086;-1.652;2022-11-21T04:06:32;20.92;;;5.05;;
22230;SDS011;11284;48.086;-1.652;2022-11-21T04:08:58;16.05;;;5.05;;
22230;SDS011;11284;48.086;-1.652;2022-11-21T04:11:24;16.35;;;4.97;;
22230;SDS011;11284;48.086;-1.652;2022-11-21T04:13:50;20.10;;;4.90;;
22230;SDS011;11284;48.086;-1.652;2022-11-21T04:16:16;21.95;;;5.60;;
22230;SDS011;11284;48.086;-1.652;2022-11-21T04:18:42;18.65;;;4.82;;
22230;SDS011;11284;48.086;-1.652;2022-11-21T04:21:09;18.40;;;5.10;;
22230;SDS011;11284;48.086;-1.652;2022-11-21T04:23:35;22.67;;;5.55;;
22230;SDS011;11284;48.086;-1.652;2022-11-21T04:26:01;19.05;;;4.32;;
22230;SDS011;11284;48.086;-1.652;2022-11-21T04:28:27;20.50;;;4.57;;
22230;SDS011;11284;48.086;-1.652;2022-11-21T04:30:53;23.20;;;5.45;;
22230;SDS011;11284;48.086;-1.652;2022-11-21T04:33:19;20.05;;;4.18;;
22230;SDS011;11284;48.086;-1.652;2022-11-21T04:35:45;19.35;;;4.55;;
22230;SDS011;11284;48.086;-1.652;2022-11-21T04:38:12;15.73;;;4.50;;
22230;SDS011;11284;48.086;-1.652;2022-11-21T04:40:38;17.88;;;4.78;;
22230;SDS011;11284;48.086;-1.652;2022-11-21T04:43:04;17.75;;;4.55;;
22230;SDS011;11284;48.086;-1.652;2022-11-21T04:45:30;19.48;;;4.80;;
22230;SDS011;11284;48.086;-1.652;2022-11-21T04:47:57;16.25;;;4.13;;
22230;SDS011;11284;48.086;-1.652;2022-11-21T04:50:22;18.08;;;4.43;;
22230;SDS011;11284;48.086;-1.652;2022-11-21T04:52:49;17.52;;;4.47;;
22230;SDS011;11284;48.086;-1.652;2022-11-21T04:55:15;13.98;;;4.35;;
22230;SDS011;11284;48.086;-1.652;2022-11-21T04:57:41;18.52;;;4.35;;
22230;SDS011;11284;48.086;-1.652;2022-11-21T05:00:07;23.73;;;5.70;;
22230;SDS011;11284;48.086;-1.652;2022-11-21T05:02:33;16.70;;;4.35;;
22230;SDS011;11284;48.086;-1.652;2022-11-21T05:04:59;15.77;;;4.32;;
22230;SDS011;11284;48.086;-1.652;2022-11-21T05:07:25;15.05;;;4.63;;
22230;SDS011;11284;48.086;-1.652;2022-11-21T05:09:51;18.85;;;4.15;;
22230;SDS011;11284;48.086;-1.652;2022-11-21T05:12:17;18.27;;;4.15;;
22230;SDS011;11284;48.086;-1.652;2022-11-21T05:15:02;19.52;;;3.97;;
22230;SDS011;11284;48.086;-1.652;2022-11-21T05:17:28;16.08;;;4.35;;
22230;SDS011;11284;48.086;-1.652;2022-11-21T05:19:54;19.48;;;4.13;;
22230;SDS011;11284;48.086;-1.652;2022-11-21T05:22:20;17.45;;;3.70;;
22230;SDS011;11284;48.086;-1.652;2022-11-21T05:24:46;15.00;;;3.30;;
22230;SDS011;11284;48.086;-1.652;2022-11-21T05:27:12;19.27;;;3.80;;
22230;SDS011;11284;48.086;-1.652;2022-11-21T05:29:38;16.75;;;3.97;;
22230;SDS011;11284;48.086;-1.652;2022-11-21T05:32:04;18.45;;;4.07;;
22230;SDS011;11284;48.086;-1.652;2022-11-21T05:34:30;20.42;;;4.00;;
22230;SDS011;11284;48.086;-1.652;2022-11-21T05:36:56;17.73;;;3.80;;
22230;SDS011;11284;48.086;-1.652;2022-11-21T05:39:23;16.35;;;4.07;;
22230;SDS011;11284;48.086;-1.652;2022-11-21T05:41:49;18.73;;;4.45;;
22230;SDS011;11284;48.086;-1.652;2022-11-21T05:44:15;16.38;;;3.40;;
22230;SDS011;11284;48.086;-1.652;2022-11-21T05:46:41;17.88;;;3.95;;
22230;SDS011;11284;48.086;-1.652;2022-11-21T05:49:07;20.05;;;3.85;;
22230;SDS011;11284;48.086;-1.652;2022-11-21T05:51:33;15.68;;;3.20;;
22230;SDS011;11284;48.086;-1.652;2022-11-21T05:53:59;17.20;;;3.85;;
22230;SDS011;11284;48.086;-1.652;2022-11-21T05:56:25;18.77;;;3.88;;
22230;SDS011;11284;48.086;-1.652;2022-11-21T05:58:53;15.43;;;3.30;;
22230;SDS011;11284;48.086;-1.652;2022-11-21T06:01:19;17.73;;;3.70;;
22230;SDS011;11284;48.086;-1.652;2022-11-21T06:04:05;16.13;;;3.42;;
22230;SDS011;11284;48.086;-1.652;2022-11-21T06:06:31;15.20;;;3.17;;
22230;SDS011;11284;48.086;-1.652;2022-11-21T06:08:57;18.45;;;3.88;;
22230;SDS011;11284;48.086;-1.652;2022-11-21T06:11:23;19.42;;;3.72;;
22230;SDS011;11284;48.086;-1.652;2022-11-21T06:13:49;17.15;;;3.83;;
22230;SDS011;11284;48.086;-1.652;2022-11-21T06:16:16;16.05;;;3.75;;
22230;SDS011;11284;48.086;-1.652;2022-11-21T06:18:44;20.75;;;4.53;;
22230;SDS011;11284;48.086;-1.652;2022-11-21T06:21:20;15.40;;;3.58;;
22230;SDS011;11284;48.086;-1.652;2022-11-21T06:23:48;14.10;;;4.22;;
22230;SDS011;11284;48.086;-1.652;2022-11-21T06:26:16;19.33;;;3.22;;
22230;SDS011;11284;48.086;-1.652;2022-11-21T06:28:42;15.40;;;3.78;;
22230;SDS011;11284;48.086;-1.652;2022-11-21T06:31:12;17.38;;;3.35;;
22230;SDS011;11284;48.086;-1.652;2022-11-21T06:33:39;15.90;;;4.00;;
22230;SDS011;11284;48.086;-1.652;2022-11-21T06:36:06;19.27;;;3.47;;
22230;SDS011;11284;48.086;-1.652;2022-11-21T06:38:32;14.13;;;3.33;;
22230;SDS011;11284;48.086;-1.652;2022-11-21T06:41:03;18.05;;;3.47;;
22230;SDS011;11284;48.086;-1.652;2022-11-21T06:43:29;16.52;;;3.80;;
22230;SDS011;11284;48.086;-1.652;2022-11-21T06:45:55;17.10;;;3.33;;
22230;SDS011;11284;48.086;-1.652;2022-11-21T06:48:22;15.23;;;3.35;;
22230;SDS011;11284;48.086;-1.652;2022-11-21T06:50:48;19.27;;;3.92;;
22230;SDS011;11284;48.086;-1.652;2022-11-21T06:53:14;15.45;;;3.58;;
22230;SDS011;11284;48.086;-1.652;2022-11-21T06:55:40;14.68;;;3.50;;
22230;SDS011;11284;48.086;-1.652;2022-11-21T06:58:06;17.48;;;3.85;;
22230;SDS011;11284;48.086;-1.652;2022-11-21T07:00:33;15.80;;;3.55;;
22230;SDS011;11284;48.086;-1.652;2022-11-21T07:02:59;18.23;;;3.95;;
22230;SDS011;11284;48.086;-1.652;2022-11-21T07:05:25;23.40;;;3.90;;
22230;SDS011;11284;48.086;-1.652;2022-11-21T07:07:56;17.92;;;3.53;;
22230;SDS011;11284;48.086;-1.652;2022-11-21T07:10:22;18.13;;;3.78;;
22230;SDS011;11284;48.086;-1.652;2022-11-21T07:12:48;19.33;;;3.60;;
22230;SDS011;11284;48.086;-1.652;2022-11-21T07:15:32;16.65;;;3.80;;
22230;SDS011;11284;48.086;-1.652;2022-11-21T07:17:59;18.48;;;3.75;;
22230;SDS011;11284;48.086;-1.652;2022-11-21T07:20:26;18.40;;;4.65;;
22230;SDS011;11284;48.086;-1.652;2022-11-21T07:22:52;23.23;;;8.60;;
22230;SDS011;11284;48.086;-1.652;2022-11-21T07:25:19;17.83;;;3.95;;
22230;SDS011;11284;48.086;-1.652;2022-11-21T07:27:45;18.58;;;3.97;;
22230;SDS011;11284;48.086;-1.652;2022-11-21T07:30:11;22.52;;;7.05;;
22230;SDS011;11284;48.086;-1.652;2022-11-21T07:32:37;17.85;;;4.72;;
22230;SDS011;11284;48.086;-1.652;2022-11-21T07:35:04;37.17;;;23.05;;
22230;SDS011;11284;48.086;-1.652;2022-11-21T07:37:30;18.02;;;4.60;;
22230;SDS011;11284;48.086;-1.652;2022-11-21T07:39:56;18.02;;;3.78;;
22230;SDS011;11284;48.086;-1.652;2022-11-21T07:42:22;21.00;;;3.90;;
22230;SDS011;11284;48.086;-1.652;2022-11-21T07:44:48;17.42;;;3.88;;
22230;SDS011;11284;48.086;-1.652;2022-11-21T07:47:14;20.83;;;3.88;;
22230;SDS011;11284;48.086;-1.652;2022-11-21T07:49:40;22.50;;;3.83;;
22230;SDS011;11284;48.086;-1.652;2022-11-21T07:52:06;17.48;;;4.20;;
22230;SDS011;11284;48.086;-1.652;2022-11-21T07:54:32;20.60;;;4.00;;
22230;SDS011;11284;48.086;-1.652;2022-11-21T07:56:58;14.73;;;3.00;;
22230;SDS011;11284;48.086;-1.652;2022-11-21T07:59:24;16.45;;;3.75;;
22230;SDS011;11284;48.086;-1.652;2022-11-21T08:01:50;17.55;;;3.70;;
22230;SDS011;11284;48.086;-1.652;2022-11-21T08:04:16;19.67;;;3.83;;
22230;SDS011;11284;48.086;-1.652;2022-11-21T08:06:42;15.27;;;3.78;;
22230;SDS011;11284;48.086;-1.652;2022-11-21T08:09:08;20.15;;;3.67;;
22230;SDS011;11284;48.086;-1.652;2022-11-21T08:11:35;16.10;;;3.60;;
22230;SDS011;11284;48.086;-1.652;2022-11-21T08:14:01;20.30;;;3.63;;
22230;SDS011;11284;48.086;-1.652;2022-11-21T08:16:27;13.60;;;3.85;;
22230;SDS011;11284;48.086;-1.652;2022-11-21T08:18:56;14.93;;;3.80;;
22230;SDS011;11284;48.086;-1.652;2022-11-21T08:21:22;16.27;;;4.25;;
22230;SDS011;11284;48.086;-1.652;2022-11-21T08:23:48;14.60;;;3.60;;
22230;SDS011;11284;48.086;-1.652;2022-11-21T08:26:15;18.85;;;3.97;;
22230;SDS011;11284;48.086;-1.652;2022-11-21T08:28:41;14.55;;;3.50;;
22230;SDS011;11284;48.086;-1.652;2022-11-21T08:31:07;15.40;;;3.80;;
22230;SDS011;11284;48.086;-1.652;2022-11-21T08:33:33;17.70;;;4.45;;
22230;SDS011;11284;48.086;-1.652;2022-11-21T08:36:02;16.20;;;3.97;;
22230;SDS011;11284;48.086;-1.652;2022-11-21T08:38:29;16.77;;;3.72;;
22230;SDS011;11284;48.086;-1.652;2022-11-21T08:40:55;16.58;;;3.60;;
22230;SDS011;11284;48.086;-1.652;2022-11-21T08:43:40;19.65;;;3.60;;
22230;SDS011;11284;48.086;-1.652;2022-11-21T08:46:06;15.85;;;3.50;;
22230;SDS011;11284;48.086;-1.652;2022-11-21T08:48:32;14.57;;;3.50;;
22230;SDS011;11284;48.086;-1.652;2022-11-21T08:50:58;17.52;;;3.63;;
22230;SDS011;11284;48.086;-1.652;2022-11-21T08:53:24;15.63;;;3.70;;
22230;SDS011;11284;48.086;-1.652;2022-11-21T08:55:52;12.32;;;2.67;;
22230;SDS011;11284;48.086;-1.652;2022-11-21T08:58:18;15.40;;;3.47;;
22230;SDS011;11284;48.086;-1.652;2022-11-21T09:00:44;15.00;;;3.45;;
22230;SDS011;11284;48.086;-1.652;2022-11-21T09:03:10;12.23;;;3.47;;
22230;SDS011;11284;48.086;-1.652;2022-11-21T09:05:36;13.00;;;2.83;;
22230;SDS011;11284;48.086;-1.652;2022-11-21T09:08:02;16.58;;;3.22;;
22230;SDS011;11284;48.086;-1.652;2022-11-21T09:10:28;14.93;;;3.60;;
22230;SDS011;11284;48.086;-1.652;2022-11-21T09:12:57;10.30;;;2.58;;
22230;SDS011;11284;48.086;-1.652;2022-11-21T09:15:24;13.57;;;2.90;;
22230;SDS011;11284;48.086;-1.652;2022-11-21T09:18:11;9.43;;;2.42;;
22230;SDS011;11284;48.086;-1.652;2022-11-21T09:20:38;10.40;;;2.40;;
22230;SDS011;11284;48.086;-1.652;2022-11-21T09:23:05;9.02;;;2.47;;
22230;SDS011;11284;48.086;-1.652;2022-11-21T09:25:32;9.00;;;2.63;;
22230;SDS011;11284;48.086;-1.652;2022-11-21T09:27:59;7.28;;;2.15;;
22230;SDS011;11284;48.086;-1.652;2022-11-21T09:30:25;11.85;;;2.50;;
22230;SDS011;11284;48.086;-1.652;2022-11-21T09:32:51;8.63;;;2.53;;
22230;SDS011;11284;48.086;-1.652;2022-11-21T09:35:17;7.90;;;2.00;;
22230;SDS011;11284;48.086;-1.652;2022-11-21T09:37:44;7.88;;;2.10;;
22230;SDS011;11284;48.086;-1.652;2022-11-21T09:40:16;7.10;;;2.00;;
22230;SDS011;11284;48.086;-1.652;2022-11-21T09:47:44;9.30;;;1.63;;
22230;SDS011;11284;48.086;-1.652;2022-11-21T09:55:23;6.70;;;1.67;;
22230;SDS011;11284;48.086;-1.652;2022-11-21T09:57:52;7.78;;;1.60;;
22230;SDS011;11284;48.086;-1.652;2022-11-21T10:00:19;5.72;;;1.67;;
22230;SDS011;11284;48.086;-1.652;2022-11-21T10:02:46;6.22;;;1.50;;
22230;SDS011;11284;48.086;-1.652;2022-11-21T10:05:13;5.30;;;1.35;;
22230;SDS011;11284;48.086;-1.652;2022-11-21T10:07:39;4.40;;;1.63;;
22230;SDS011;11284;48.086;-1.652;2022-11-21T10:23:07;4.63;;;1.25;;
22230;SDS011;11284;48.086;-1.652;2022-11-21T10:25:35;4.18;;;1.00;;
22230;SDS011;11284;48.086;-1.652;2022-11-21T10:28:08;5.82;;;1.08;;
22230;SDS011;11284;48.086;-1.652;2022-11-21T10:30:35;5.90;;;1.38;;
22230;SDS011;11284;48.086;-1.652;2022-11-21T10:33:10;2.85;;;1.20;;
22230;SDS011;11284;48.086;-1.652;2022-11-21T10:35:38;3.80;;;1.00;;
22230;SDS011;11284;48.086;-1.652;2022-11-21T10:38:20;4.15;;;1.30;;
22230;SDS011;11284;48.086;-1.652;2022-11-21T10:40:48;7.68;;;1.30;;
22230;SDS011;11284;48.086;-1.652;2022-11-21T10:45:59;6.60;;;1.30;;
22230;SDS011;11284;48.086;-1.652;2022-11-21T10:48:25;7.47;;;1.30;;
22230;SDS011;11284;48.086;-1.652;2022-11-21T10:53:44;6.57;;;1.38;;
22230;SDS011;11284;48.086;-1.652;2022-11-21T10:56:29;10.50;;;1.65;;
22230;SDS011;11284;48.086;-1.652;2022-11-21T10:58:58;7.10;;;1.45;;
22230;SDS011;11284;48.086;-1.652;2022-11-21T11:04:06;11.52;;;2.22;;
22230;SDS011;11284;48.086;-1.652;2022-11-21T11:06:33;8.00;;;2.10;;
22230;SDS011;11284;48.086;-1.652;2022-11-21T11:08:59;16.42;;;3.08;;
22230;SDS011;11284;48.086;-1.652;2022-11-21T11:11:25;14.55;;;2.75;;
22230;SDS011;11284;48.086;-1.652;2022-11-21T11:16:18;16.88;;;3.42;;
22230;SDS011;11284;48.086;-1.652;2022-11-21T11:19:04;14.10;;;2.95;;
22230;SDS011;11284;48.086;-1.652;2022-11-21T11:26:34;20.90;;;3.80;;
22230;SDS011;11284;48.086;-1.652;2022-11-21T11:34:13;16.52;;;3.47;;
22230;SDS011;11284;48.086;-1.652;2022-11-21T11:36:52;15.13;;;2.97;;
22230;SDS011;11284;48.086;-1.652;2022-11-21T11:42:03;16.90;;;3.20;;
22230;SDS011;11284;48.086;-1.652;2022-11-21T11:45:01;17.17;;;3.72;;
22230;SDS011;11284;48.086;-1.652;2022-11-21T11:47:53;19.88;;;3.08;;
22230;SDS011;11284;48.086;-1.652;2022-11-21T11:50:32;14.85;;;3.35;;
22230;SDS011;11284;48.086;-1.652;2022-11-21T11:53:18;18.30;;;3.50;;
22230;SDS011;11284;48.086;-1.652;2022-11-21T12:01:19;18.75;;;3.60;;
22230;SDS011;11284;48.086;-1.652;2022-11-21T12:04:20;17.05;;;3.35;;
22230;SDS011;11284;48.086;-1.652;2022-11-21T12:06:44;16.23;;;3.28;;
22230;SDS011;11284;48.086;-1.652;2022-11-21T12:11:58;13.77;;;2.85;;
22230;SDS011;11284;48.086;-1.652;2022-11-21T12:17:20;13.98;;;2.75;;
22230;SDS011;11284;48.086;-1.652;2022-11-21T12:19:50;17.33;;;3.35;;
22230;SDS011;11284;48.086;-1.652;2022-11-21T12:22:17;17.48;;;3.25;;
22230;SDS011;11284;48.086;-1.652;2022-11-21T12:24:43;15.60;;;3.15;;
22230;SDS011;11284;48.086;-1.652;2022-11-21T12:29:46;17.33;;;3.70;;
22230;SDS011;11284;48.086;-1.652;2022-11-21T12:53:47;14.95;;;3.25;;
22230;SDS011;11284;48.086;-1.652;2022-11-21T12:59:05;16.08;;;3.53;;
22230;SDS011;11284;48.086;-1.652;2022-11-21T13:04:08;17.92;;;4.05;;
22230;SDS011;11284;48.086;-1.652;2022-11-21T13:06:39;15.00;;;3.42;;
22230;SDS011;11284;48.086;-1.652;2022-11-21T13:09:07;13.88;;;2.92;;
22230;SDS011;11284;48.086;-1.652;2022-11-21T13:14:28;16.10;;;2.88;;
22230;SDS011;11284;48.086;-1.652;2022-11-21T13:19:55;16.23;;;2.78;;
22230;SDS011;11284;48.086;-1.652;2022-11-21T13:25:01;15.18;;;2.60;;
22230;SDS011;11284;48.086;-1.652;2022-11-21T13:27:34;10.13;;;1.95;;
22230;SDS011;11284;48.086;-1.652;2022-11-21T13:32:39;8.93;;;1.83;;
22230;SDS011;11284;48.086;-1.652;2022-11-21T13:48:04;8.43;;;1.58;;
22230;SDS011;11284;48.086;-1.652;2022-11-21T13:53:15;8.45;;;1.30;;
22230;SDS011;11284;48.086;-1.652;2022-11-21T14:04:08;7.93;;;1.90;;
22230;SDS011;11284;48.086;-1.652;2022-11-21T14:06:37;9.90;;;1.50;;
22230;SDS011;11284;48.086;-1.652;2022-11-21T14:09:20;9.77;;;1.90;;
22230;SDS011;11284;48.086;-1.652;2022-11-21T14:11:51;7.45;;;1.40;;
22230;SDS011;11284;48.086;-1.652;2022-11-21T14:16:52;9.88;;;1.65;;
22230;SDS011;11284;48.086;-1.652;2022-11-21T14:19:19;11.38;;;1.92;;
22230;SDS011;11284;48.086;-1.652;2022-11-21T14:21:45;12.40;;;2.30;;
22230;SDS011;11284;48.086;-1.652;2022-11-21T14:24:13;7.88;;;1.63;;
22230;SDS011;11284;48.086;-1.652;2022-11-21T14:26:44;8.18;;;2.22;;
22230;SDS011;11284;48.086;-1.652;2022-11-21T14:29:18;9.38;;;1.80;;
22230;SDS011;11284;48.086;-1.652;2022-11-21T14:31:46;10.68;;;2.22;;
22230;SDS011;11284;48.086;-1.652;2022-11-21T14:34:22;9.63;;;2.00;;
22230;SDS011;11284;48.086;-1.652;2022-11-21T14:36:48;8.95;;;1.65;;
22230;SDS011;11284;48.086;-1.652;2022-11-21T14:39:14;11.30;;;2.25;;
22230;SDS011;11284;48.086;-1.652;2022-11-21T14:41:41;10.90;;;1.92;;
22230;SDS011;11284;48.086;-1.652;2022-11-21T14:46:39;10.68;;;1.70;;
22230;SDS011;11284;48.086;-1.652;2022-11-21T14:49:25;8.50;;;1.30;;
22230;SDS011;11284;48.086;-1.652;2022-11-21T14:51:57;9.55;;;1.95;;
22230;SDS011;11284;48.086;-1.652;2022-11-21T14:54:27;8.95;;;1.75;;
22230;SDS011;11284;48.086;-1.652;2022-11-21T14:56:56;8.07;;;1.50;;
22230;SDS011;11284;48.086;-1.652;2022-11-21T14:59:24;6.57;;;1.73;;
22230;SDS011;11284;48.086;-1.652;2022-11-21T15:02:01;10.82;;;2.42;;
22230;SDS011;11284;48.086;-1.652;2022-11-21T15:04:29;8.57;;;1.77;;
22230;SDS011;11284;48.086;-1.652;2022-11-21T15:06:55;7.90;;;1.55;;
22230;SDS011;11284;48.086;-1.652;2022-11-21T15:09:22;7.75;;;1.35;;
22230;SDS011;11284;48.086;-1.652;2022-11-21T15:11:50;7.13;;;1.42;;
22230;SDS011;11284;48.086;-1.652;2022-11-21T15:16:46;6.40;;;1.20;;
22230;SDS011;11284;48.086;-1.652;2022-11-21T15:19:26;6.63;;;2.03;;
22230;SDS011;11284;48.086;-1.652;2022-11-21T15:21:54;6.13;;;1.23;;
22230;SDS011;11284;48.086;-1.652;2022-11-21T15:26:53;6.50;;;1.10;;
22230;SDS011;11284;48.086;-1.652;2022-11-21T15:29:19;4.47;;;1.10;;
22230;SDS011;11284;48.086;-1.652;2022-11-21T15:32:03;3.90;;;0.70;;
22230;SDS011;11284;48.086;-1.652;2022-11-21T15:37:10;6.45;;;1.00;;
22230;SDS011;11284;48.086;-1.652;2022-11-21T15:39:41;6.20;;;1.23;;
22230;SDS011;11284;48.086;-1.652;2022-11-21T15:44:58;5.80;;;1.30;;
22230;SDS011;11284;48.086;-1.652;2022-11-21T15:47:25;9.15;;;1.17;;
22230;SDS011;11284;48.086;-1.652;2022-11-21T15:49:51;6.18;;;1.25;;
22230;SDS011;11284;48.086;-1.652;2022-11-21T15:52:17;9.07;;;1.40;;
22230;SDS011;11284;48.086;-1.652;2022-11-21T15:54:43;7.53;;;1.55;;
22230;SDS011;11284;48.086;-1.652;2022-11-21T15:57:09;5.30;;;1.02;;
22230;SDS011;11284;48.086;-1.652;2022-11-21T15:59:35;7.25;;;1.48;;
22230;SDS011;11284;48.086;-1.652;2022-11-21T16:02:01;6.68;;;1.50;;
22230;SDS011;11284;48.086;-1.652;2022-11-21T16:04:27;6.68;;;1.40;;
22230;SDS011;11284;48.086;-1.652;2022-11-21T16:06:53;6.70;;;1.15;;
22230;SDS011;11284;48.086;-1.652;2022-11-21T16:09:19;7.53;;;1.73;;
22230;SDS011;11284;48.086;-1.652;2022-11-21T16:11:45;8.60;;;1.48;;
22230;SDS011;11284;48.086;-1.652;2022-11-21T16:14:12;5.32;;;1.10;;
22230;SDS011;11284;48.086;-1.652;2022-11-21T16:16:38;5.43;;;1.00;;
22230;SDS011;11284;48.086;-1.652;2022-11-21T16:19:05;4.95;;;0.95;;
22230;SDS011;11284;48.086;-1.652;2022-11-21T16:21:31;5.28;;;1.08;;
22230;SDS011;11284;48.086;-1.652;2022-11-21T16:23:57;6.20;;;1.30;;
22230;SDS011;11284;48.086;-1.652;2022-11-21T16:26:23;7.63;;;1.20;;
22230;SDS011;11284;48.086;-1.652;2022-11-21T16:28:55;5.65;;;1.20;;
22230;SDS011;11284;48.086;-1.652;2022-11-21T16:31:22;7.00;;;1.73;;
22230;SDS011;11284;48.086;-1.652;2022-11-21T16:33:48;6.40;;;1.45;;
22230;SDS011;11284;48.086;-1.652;2022-11-21T16:36:18;5.28;;;1.23;;
22230;SDS011;11284;48.086;-1.652;2022-11-21T16:38:44;5.90;;;1.48;;
22230;SDS011;11284;48.086;-1.652;2022-11-21T16:41:10;5.68;;;1.33;;
22230;SDS011;11284;48.086;-1.652;2022-11-21T16:43:36;8.98;;;1.70;;
22230;SDS011;11284;48.086;-1.652;2022-11-21T16:46:09;5.82;;;1.50;;
22230;SDS011;11284;48.086;-1.652;2022-11-21T16:48:35;6.57;;;1.70;;
22230;SDS011;11284;48.086;-1.652;2022-11-21T16:53:57;6.50;;;1.73;;
22230;SDS011;11284;48.086;-1.652;2022-11-21T16:56:23;7.50;;;1.70;;
22230;SDS011;11284;48.086;-1.652;2022-11-21T16:58:49;6.97;;;2.08;;
22230;SDS011;11284;48.086;-1.652;2022-11-21T17:01:21;6.45;;;1.40;;